Bloomington, IN (47408)

05:55 PM EST del 26 Febbraio 2015 (GMT -0500)
APRSWXNET Bloomington IN US | Change Station
CLOSE
Current Station
Stazione meteo personale
Location: Bloomington, IN
Altitudine: 839 ft
Stazioni meteo nelle vicinanze

Alt. 839 ft 39.17 °N, 86.50 °W | Updated 24 minutes ago

Coperto
Coperto
20 °F
Sembra 10 °F
N
9
Vento Variabile Vento da NNO
Gusts 14.0 mph

Oggi
Massima -- | Minima -- °F
--% Possibilità di precip.
Ieri
Massima -- | Minima -- °F
Precip. -- in
7:23 AM 6:34 PM
Gobba a ponente, 63% visible
Pressione 30.23 in
Visibilità 10.0 miglia
Nuvole Alcuni 2700 ft
Coperto 8500 ft
Raffreddamento del vento 10 °F
Punto di rugiada 11 °F
Umidità 66%
Piovosità 0.01 in
Spessore del manto nevoso Non disponibile.
Raggi UV 0 fuori da 12
Polline .60 fuori da 12
Qualità dell'aria Non disponibile.
Flu Activity Non disponibile.
METAR KBMG 262153Z 35013KT 10SM FEW027 OVC085 M07/M12 A3019 RMK AO2 SLP235 T10671122

More Conditions Fewer Conditions

Pressione 30.23 in
Visibilità 10.0 miglia
Nuvole Alcuni 2700 ft
Coperto 8500 ft
Raffreddamento del vento 10 °F
Punto di rugiada 11 °F
Umidità 66%
Piovosità 0.01 in
Spessore del manto nevoso Non disponibile.
Raggi UV 0 fuori da 12
Polline .60 fuori da 12
Qualità dell'aria Non disponibile.
Flu Activity Non disponibile.
METAR KBMG 262153Z 35013KT 10SM FEW027 OVC085 M07/M12 A3019 RMK AO2 SLP235 T10671122

More Conditions Fewer Conditions

10-Day Weather Forecast

Almanac

Astronomia

Feb. 26, 2015 Alba Tramonto
Ora attuale
Crepuscolo civile
Crepuscolo nautico
Crepuscolo astronomico
Luna
Estensione della luce visibile
Lunghezza del giorno
Tomorrow will be .
, % of the Moon is Illuminated

Gli estremi di oggi

State Highs State Lows

Community

WunderPhotos

Upload Photos

1,800,546 foto caricate!

WunderBlogs® & News

Nearby

Qualità dell'aria

  Qualità dell'aria Indice AQ Inquinante
Not available.

Profondità neve

Stazione Profondità Altitudine

Attività sismica

Città  Distanza Mag. Data & Ora
Minimo Magnitudo Mostrato è 2.5.

Temperature delle acque costiere

Località Temperatura

Stazioni meteo nelle vicinanze